sensor_id;sensor_type;location;lat;lon;timestamp;pressure;altitude;pressure_sealevel;temperature;humidity
5138;BME280;53959;53.626;11.410;2023-04-28T00:02:12;101351.09;;;5.58;71.63
5138;BME280;53959;53.626;11.410;2023-04-28T00:04:38;101349.38;;;5.65;71.80
5138;BME280;53959;53.626;11.410;2023-04-28T00:07:03;101353.72;;;5.55;71.95
5138;BME280;53959;53.626;11.410;2023-04-28T00:09:28;101340.50;;;5.51;71.52
5138;BME280;53959;53.626;11.410;2023-04-28T00:11:54;101344.03;;;5.51;71.75
5138;BME280;53959;53.626;11.410;2023-04-28T00:14:19;101342.22;;;5.44;71.19
5138;BME280;53959;53.626;11.410;2023-04-28T00:16:44;101344.94;;;5.56;71.07
5138;BME280;53959;53.626;11.410;2023-04-28T00:19:10;101332.63;;;5.55;71.46
5138;BME280;53959;53.626;11.410;2023-04-28T00:21:35;101332.56;;;5.45;70.96
5138;BME280;53959;53.626;11.410;2023-04-28T00:24:00;101337.81;;;5.40;70.95
5138;BME280;53959;53.626;11.410;2023-04-28T00:26:26;101335.25;;;5.49;70.95
5138;BME280;53959;53.626;11.410;2023-04-28T00:28:51;101323.81;;;5.49;70.73
5138;BME280;53959;53.626;11.410;2023-04-28T00:31:17;101323.75;;;5.40;70.87
5138;BME280;53959;53.626;11.410;2023-04-28T00:33:43;101328.16;;;5.39;70.58
5138;BME280;53959;53.626;11.410;2023-04-28T00:36:09;101321.97;;;5.32;70.54
5138;BME280;53959;53.626;11.410;2023-04-28T00:38:35;101325.50;;;5.38;70.62
5138;BME280;53959;53.626;11.410;2023-04-28T00:41:01;101318.50;;;5.40;70.68
5138;BME280;53959;53.626;11.410;2023-04-28T00:43:26;101313.22;;;5.38;70.85
5138;BME280;53959;53.626;11.410;2023-04-28T00:45:52;101310.53;;;5.27;71.09
5138;BME280;53959;53.626;11.410;2023-04-28T00:48:18;101310.56;;;5.30;70.85
5138;BME280;53959;53.626;11.410;2023-04-28T00:50:44;101306.13;;;5.29;71.21
5138;BME280;53959;53.626;11.410;2023-04-28T00:53:11;101304.41;;;5.31;71.22
5138;BME280;53959;53.626;11.410;2023-04-28T00:55:37;101306.13;;;5.25;71.35
5138;BME280;53959;53.626;11.410;2023-04-28T00:58:04;101301.69;;;5.21;71.51
5138;BME280;53959;53.626;11.410;2023-04-28T01:00:29;101298.22;;;5.25;71.50
5138;BME280;53959;53.626;11.410;2023-04-28T01:02:56;101302.63;;;5.27;71.37
5138;BME280;53959;53.626;11.410;2023-04-28T01:05:23;101298.22;;;5.25;70.86
5138;BME280;53959;53.626;11.410;2023-04-28T01:07:49;101294.72;;;5.29;70.59
5138;BME280;53959;53.626;11.410;2023-04-28T01:10:14;101291.19;;;5.24;71.30
5138;BME280;53959;53.626;11.410;2023-04-28T01:12:40;101292.91;;;5.19;70.96
5138;BME280;53959;53.626;11.410;2023-04-28T01:15:07;101299.03;;;5.18;70.98
5138;BME280;53959;53.626;11.410;2023-04-28T01:17:35;101292.91;;;5.22;71.35
5138;BME280;53959;53.626;11.410;2023-04-28T01:20:00;101288.53;;;5.19;71.11
5138;BME280;53959;53.626;11.410;2023-04-28T01:22:26;101290.34;;;5.28;71.09
5138;BME280;53959;53.626;11.410;2023-04-28T01:24:51;101290.31;;;5.23;71.37
5138;BME280;53959;53.626;11.410;2023-04-28T01:27:17;101284.16;;;5.23;71.21
5138;BME280;53959;53.626;11.410;2023-04-28T01:29:42;101289.44;;;5.23;71.74
5138;BME280;53959;53.626;11.410;2023-04-28T01:32:08;101277.09;;;5.16;72.10
5138;BME280;53959;53.626;11.410;2023-04-28T01:34:33;101277.09;;;5.19;72.04
5138;BME280;53959;53.626;11.410;2023-04-28T01:36:58;101274.47;;;5.22;71.85
5138;BME280;53959;53.626;11.410;2023-04-28T01:39:24;101283.25;;;5.22;71.76
5138;BME280;53959;53.626;11.410;2023-04-28T01:41:49;101288.50;;;5.18;71.97
5138;BME280;53959;53.626;11.410;2023-04-28T01:44:15;101280.59;;;5.15;72.78
5138;BME280;53959;53.626;11.410;2023-04-28T01:46:40;101277.97;;;5.18;72.56
5138;BME280;53959;53.626;11.410;2023-04-28T01:49:05;101276.19;;;5.09;72.83
5138;BME280;53959;53.626;11.410;2023-04-28T01:51:32;101270.03;;;5.15;73.15
5138;BME280;53959;53.626;11.410;2023-04-28T01:53:58;101272.69;;;5.13;72.83
5138;BME280;53959;53.626;11.410;2023-04-28T01:56:23;101273.50;;;5.07;73.44
5138;BME280;53959;53.626;11.410;2023-04-28T01:58:50;101270.91;;;5.09;73.34
5138;BME280;53959;53.626;11.410;2023-04-28T02:01:16;101269.16;;;5.08;73.26
5138;BME280;53959;53.626;11.410;2023-04-28T02:03:42;101272.63;;;5.07;73.55
5138;BME280;53959;53.626;11.410;2023-04-28T02:06:07;101260.34;;;5.04;73.27
5138;BME280;53959;53.626;11.410;2023-04-28T02:08:34;101262.97;;;5.03;73.12
5138;BME280;53959;53.626;11.410;2023-04-28T02:10:59;101259.44;;;5.02;72.87
5138;BME280;53959;53.626;11.410;2023-04-28T02:13:25;101262.06;;;4.98;73.20
5138;BME280;53959;53.626;11.410;2023-04-28T02:15:51;101267.38;;;5.05;73.14
5138;BME280;53959;53.626;11.410;2023-04-28T02:18:19;101263.84;;;5.03;73.57
5138;BME280;53959;53.626;11.410;2023-04-28T02:20:44;101256.75;;;4.90;73.80
5138;BME280;53959;53.626;11.410;2023-04-28T02:23:10;101259.31;;;4.82;74.02
5138;BME280;53959;53.626;11.410;2023-04-28T02:25:35;101266.34;;;4.85;73.41
5138;BME280;53959;53.626;11.410;2023-04-28T02:28:02;101266.38;;;4.86;72.96
5138;BME280;53959;53.626;11.410;2023-04-28T02:30:28;101269.84;;;4.84;73.32
5138;BME280;53959;53.626;11.410;2023-04-28T02:32:54;101262.81;;;4.84;72.40
5138;BME280;53959;53.626;11.410;2023-04-28T02:35:20;101253.22;;;4.86;72.27
5138;BME280;53959;53.626;11.410;2023-04-28T02:37:45;101269.00;;;4.86;72.56
5138;BME280;53959;53.626;11.410;2023-04-28T02:40:11;101261.00;;;4.77;72.48
5138;BME280;53959;53.626;11.410;2023-04-28T02:42:36;101259.31;;;4.82;72.34
5138;BME280;53959;53.626;11.410;2023-04-28T02:45:02;101261.91;;;4.79;72.63
5138;BME280;53959;53.626;11.410;2023-04-28T02:47:27;101261.94;;;4.84;72.27
5138;BME280;53959;53.626;11.410;2023-04-28T02:49:52;101264.59;;;4.84;72.00
5138;BME280;53959;53.626;11.410;2023-04-28T02:52:18;101260.16;;;4.80;72.57
5138;BME280;53959;53.626;11.410;2023-04-28T02:54:43;101257.50;;;4.77;72.32
5138;BME280;53959;53.626;11.410;2023-04-28T02:57:12;101254.84;;;4.74;71.99
5138;BME280;53959;53.626;11.410;2023-04-28T02:59:38;101248.75;;;4.75;72.16
5138;BME280;53959;53.626;11.410;2023-04-28T03:02:03;101243.50;;;4.81;72.16
5138;BME280;53959;53.626;11.410;2023-04-28T03:04:29;101241.78;;;4.81;72.88
5138;BME280;53959;53.626;11.410;2023-04-28T03:06:54;101238.25;;;4.84;72.01
5138;BME280;53959;53.626;11.410;2023-04-28T03:09:20;101239.13;;;4.78;72.50
5138;BME280;53959;53.626;11.410;2023-04-28T03:11:45;101238.28;;;4.87;72.27
5138;BME280;53959;53.626;11.410;2023-04-28T03:14:10;101231.22;;;4.80;72.63
5138;BME280;53959;53.626;11.410;2023-04-28T03:16:37;101233.84;;;4.78;72.71
5138;BME280;53959;53.626;11.410;2023-04-28T03:19:02;101230.34;;;4.79;72.26
5138;BME280;53959;53.626;11.410;2023-04-28T03:21:27;101223.28;;;4.75;72.16
5138;BME280;53959;53.626;11.410;2023-04-28T03:23:53;101226.81;;;4.77;71.77
5138;BME280;53959;53.626;11.410;2023-04-28T03:26:20;101234.69;;;4.71;71.22
5138;BME280;53959;53.626;11.410;2023-04-28T03:28:46;101225.00;;;4.69;71.34
5138;BME280;53959;53.626;11.410;2023-04-28T03:31:12;101221.50;;;4.67;71.60
5138;BME280;53959;53.626;11.410;2023-04-28T03:33:38;101229.41;;;4.71;72.20
5138;BME280;53959;53.626;11.410;2023-04-28T03:36:04;101225.00;;;4.69;72.91
5138;BME280;53959;53.626;11.410;2023-04-28T03:38:30;101217.13;;;4.72;72.44
5138;BME280;53959;53.626;11.410;2023-04-28T03:40:55;101210.03;;;4.61;73.23
5138;BME280;53959;53.626;11.410;2023-04-28T03:43:47;101212.69;;;4.66;73.30
5138;BME280;53959;53.626;11.410;2023-04-28T03:46:42;101205.59;;;4.54;73.14
5138;BME280;53959;53.626;11.410;2023-04-28T03:49:07;101201.25;;;4.62;73.40
5138;BME280;53959;53.626;11.410;2023-04-28T03:51:33;101195.06;;;4.53;72.97
5138;BME280;53959;53.626;11.410;2023-04-28T03:53:59;101203.78;;;4.44;73.37
5138;BME280;53959;53.626;11.410;2023-04-28T03:56:25;101188.91;;;4.51;73.47
5138;BME280;53959;53.626;11.410;2023-04-28T03:58:50;101192.41;;;4.51;73.12
5138;BME280;53959;53.626;11.410;2023-04-28T04:01:16;101193.25;;;4.46;73.28
5138;BME280;53959;53.626;11.410;2023-04-28T04:03:41;101193.25;;;4.46;73.34
5138;BME280;53959;53.626;11.410;2023-04-28T04:06:07;101194.97;;;4.44;73.31
5138;BME280;53959;53.626;11.410;2023-04-28T04:08:32;101192.31;;;4.39;73.57
5138;BME280;53959;53.626;11.410;2023-04-28T04:10:58;101181.88;;;4.45;73.71
5138;BME280;53959;53.626;11.410;2023-04-28T04:13:24;101188.81;;;4.37;74.69
5138;BME280;53959;53.626;11.410;2023-04-28T04:15:50;101181.88;;;4.50;74.14
5138;BME280;53959;53.626;11.410;2023-04-28T04:18:17;101190.69;;;4.52;73.97
5138;BME280;53959;53.626;11.410;2023-04-28T04:21:05;101199.44;;;4.49;73.78
5138;BME280;53959;53.626;11.410;2023-04-28T04:23:31;101180.13;;;4.49;73.35
5138;BME280;53959;53.626;11.410;2023-04-28T04:25:56;101184.53;;;4.48;72.60
5138;BME280;53959;53.626;11.410;2023-04-28T04:28:21;101176.63;;;4.50;72.01
5138;BME280;53959;53.626;11.410;2023-04-28T04:30:47;101182.75;;;4.44;72.10
5138;BME280;53959;53.626;11.410;2023-04-28T04:33:13;101177.50;;;4.50;72.26
5138;BME280;53959;53.626;11.410;2023-04-28T04:35:39;101175.78;;;4.54;72.49
5138;BME280;53959;53.626;11.410;2023-04-28T04:38:04;101174.97;;;4.64;72.22
5138;BME280;53959;53.626;11.410;2023-04-28T04:40:30;101175.81;;;4.61;72.17
5138;BME280;53959;53.626;11.410;2023-04-28T04:42:55;101170.53;;;4.58;71.31
5138;BME280;53959;53.626;11.410;2023-04-28T04:45:25;101167.06;;;4.59;71.67
5138;BME280;53959;53.626;11.410;2023-04-28T04:47:51;101171.41;;;4.54;71.84
5138;BME280;53959;53.626;11.410;2023-04-28T04:50:17;101168.78;;;4.56;71.09
5138;BME280;53959;53.626;11.410;2023-04-28T04:52:42;101179.28;;;4.54;70.86
5138;BME280;53959;53.626;11.410;2023-04-28T04:55:08;101166.19;;;4.60;71.49
5138;BME280;53959;53.626;11.410;2023-04-28T04:57:35;101161.75;;;4.52;71.06
5138;BME280;53959;53.626;11.410;2023-04-28T05:00:13;101159.16;;;4.58;71.01
5138;BME280;53959;53.626;11.410;2023-04-28T05:02:40;101155.69;;;4.63;71.48
5138;BME280;53959;53.626;11.410;2023-04-28T05:05:07;101163.59;;;4.63;71.26
5138;BME280;53959;53.626;11.410;2023-04-28T05:07:33;101165.31;;;4.61;71.60
5138;BME280;53959;53.626;11.410;2023-04-28T05:09:59;101161.88;;;4.70;71.56
5138;BME280;53959;53.626;11.410;2023-04-28T05:12:25;101162.72;;;4.68;71.94
5138;BME280;53959;53.626;11.410;2023-04-28T05:14:50;101161.88;;;4.72;71.75
5138;BME280;53959;53.626;11.410;2023-04-28T05:17:18;101163.63;;;4.77;71.16
5138;BME280;53959;53.626;11.410;2023-04-28T05:19:44;101159.28;;;4.81;71.64
5138;BME280;53959;53.626;11.410;2023-04-28T05:22:10;101161.97;;;4.85;71.72
5138;BME280;53959;53.626;11.410;2023-04-28T05:24:36;101158.47;;;4.93;71.57
5138;BME280;53959;53.626;11.410;2023-04-28T05:27:01;101155.91;;;5.06;70.95
5138;BME280;53959;53.626;11.410;2023-04-28T05:29:27;101152.44;;;5.15;69.79
5138;BME280;53959;53.626;11.410;2023-04-28T05:31:52;101145.44;;;5.20;68.43
5138;BME280;53959;53.626;11.410;2023-04-28T05:34:20;101150.72;;;5.25;68.71
5138;BME280;53959;53.626;11.410;2023-04-28T05:36:45;101143.72;;;5.33;68.20
5138;BME280;53959;53.626;11.410;2023-04-28T05:39:11;101143.75;;;5.39;68.02
5138;BME280;53959;53.626;11.410;2023-04-28T05:41:38;101136.69;;;5.32;67.83
5138;BME280;53959;53.626;11.410;2023-04-28T05:44:04;101138.47;;;5.31;68.50
5138;BME280;53959;53.626;11.410;2023-04-28T05:46:30;101140.22;;;5.40;68.71
5138;BME280;53959;53.626;11.410;2023-04-28T05:48:57;101133.22;;;5.45;68.13
5138;BME280;53959;53.626;11.410;2023-04-28T05:51:22;101127.97;;;5.47;67.80
5138;BME280;53959;53.626;11.410;2023-04-28T05:53:47;101132.38;;;5.57;67.62
5138;BME280;53959;53.626;11.410;2023-04-28T05:56:14;101135.88;;;5.56;67.24
5138;BME280;53959;53.626;11.410;2023-04-28T05:58:41;101122.75;;;5.60;67.50
5138;BME280;53959;53.626;11.410;2023-04-28T06:01:08;101126.25;;;5.73;66.79
5138;BME280;53959;53.626;11.410;2023-04-28T06:03:34;101126.28;;;5.87;65.80
5138;BME280;53959;53.626;11.410;2023-04-28T06:05:59;101117.53;;;5.93;65.39
5138;BME280;53959;53.626;11.410;2023-04-28T06:08:25;101120.16;;;6.03;64.70
5138;BME280;53959;53.626;11.410;2023-04-28T06:10:50;101121.91;;;6.17;64.14
5138;BME280;53959;53.626;11.410;2023-04-28T06:13:18;101123.69;;;6.15;63.94
5138;BME280;53959;53.626;11.410;2023-04-28T06:15:44;101115.75;;;6.27;63.33
5138;BME280;53959;53.626;11.410;2023-04-28T06:18:09;101127.19;;;6.44;63.24
5138;BME280;53959;53.626;11.410;2023-04-28T06:20:35;101121.88;;;6.46;62.47
5138;BME280;53959;53.626;11.410;2023-04-28T06:23:00;101123.63;;;6.62;62.26
5138;BME280;53959;53.626;11.410;2023-04-28T06:25:28;101113.94;;;6.66;61.99
5138;BME280;53959;53.626;11.410;2023-04-28T06:27:53;101110.38;;;6.76;61.06
5138;BME280;53959;53.626;11.410;2023-04-28T06:30:21;101104.13;;;6.98;60.70
5138;BME280;53959;53.626;11.410;2023-04-28T06:32:47;101099.72;;;7.08;60.49
5138;BME280;53959;53.626;11.410;2023-04-28T06:35:14;101107.56;;;7.23;59.50
5138;BME280;53959;53.626;11.410;2023-04-28T06:37:40;101105.75;;;7.30;58.95
5138;BME280;53959;53.626;11.410;2023-04-28T06:40:06;101103.03;;;7.45;57.88
5138;BME280;53959;53.626;11.410;2023-04-28T06:42:33;101104.66;;;7.68;57.17
5138;BME280;53959;53.626;11.410;2023-04-28T06:45:06;101103.72;;;7.75;56.92
5138;BME280;53959;53.626;11.410;2023-04-28T06:47:35;101101.03;;;7.81;56.65
5138;BME280;53959;53.626;11.410;2023-04-28T06:50:01;101094.00;;;7.78;56.36
5138;BME280;53959;53.626;11.410;2023-04-28T06:52:31;101093.00;;;7.92;56.17
5138;BME280;53959;53.626;11.410;2023-04-28T06:54:58;101094.63;;;8.10;55.18
5138;BME280;53959;53.626;11.410;2023-04-28T06:57:24;101088.34;;;8.21;55.30
5138;BME280;53959;53.626;11.410;2023-04-28T06:59:49;101083.72;;;8.46;54.58
5138;BME280;53959;53.626;11.410;2023-04-28T07:02:15;101083.69;;;8.51;53.97
5138;BME280;53959;53.626;11.410;2023-04-28T07:04:40;101082.72;;;8.58;53.92
5138;BME280;53959;53.626;11.410;2023-04-28T07:07:06;101070.03;;;8.88;52.94
5138;BME280;53959;53.626;11.410;2023-04-28T07:09:35;101074.22;;;9.03;52.83
5138;BME280;53959;53.626;11.410;2023-04-28T07:12:01;101084.44;;;9.33;52.13
5138;BME280;53959;53.626;11.410;2023-04-28T07:14:28;101074.31;;;9.60;51.34
5138;BME280;53959;53.626;11.410;2023-04-28T07:16:54;101063.19;;;9.93;48.65
5138;BME280;53959;53.626;11.410;2023-04-28T07:19:19;101067.34;;;10.07;47.40
5138;BME280;53959;53.626;11.410;2023-04-28T07:21:44;101071.88;;;10.02;47.42
5138;BME280;53959;53.626;11.410;2023-04-28T07:24:10;101060.94;;;10.20;47.13
5138;BME280;53959;53.626;11.410;2023-04-28T07:26:35;101061.75;;;10.25;46.09
5138;BME280;53959;53.626;11.410;2023-04-28T07:29:01;101062.66;;;10.72;45.43
5138;BME280;53959;53.626;11.410;2023-04-28T07:31:26;101059.25;;;10.65;44.73
5138;BME280;53959;53.626;11.410;2023-04-28T07:33:53;101057.75;;;10.94;43.86
5138;BME280;53959;53.626;11.410;2023-04-28T07:36:18;101053.72;;;11.18;44.05
5138;BME280;53959;53.626;11.410;2023-04-28T07:38:43;101055.63;;;11.50;43.26
5138;BME280;53959;53.626;11.410;2023-04-28T07:41:09;101053.59;;;11.23;42.18
5138;BME280;53959;53.626;11.410;2023-04-28T07:43:34;101051.59;;;11.71;42.10
5138;BME280;53959;53.626;11.410;2023-04-28T07:45:59;101052.19;;;11.84;41.82
5138;BME280;53959;53.626;11.410;2023-04-28T07:48:25;101052.25;;;12.17;40.56
5138;BME280;53959;53.626;11.410;2023-04-28T07:50:52;101050.84;;;13.84;37.36
5138;BME280;53959;53.626;11.410;2023-04-28T07:53:17;101047.63;;;15.24;34.74
5138;BME280;53959;53.626;11.410;2023-04-28T07:55:42;101053.09;;;15.67;34.03
5138;BME280;53959;53.626;11.410;2023-04-28T07:58:09;101051.25;;;16.52;33.10
5138;BME280;53959;53.626;11.410;2023-04-28T08:00:34;101047.81;;;16.89;32.80
5138;BME280;53959;53.626;11.410;2023-04-28T08:03:00;101057.84;;;17.23;32.63
5138;BME280;53959;53.626;11.410;2023-04-28T08:05:25;101049.56;;;17.47;31.57
5138;BME280;53959;53.626;11.410;2023-04-28T08:07:50;101046.63;;;16.35;33.17
5138;BME280;53959;53.626;11.410;2023-04-28T08:10:16;101045.63;;;16.38;32.75
5138;BME280;53959;53.626;11.410;2023-04-28T08:12:41;101042.63;;;16.85;31.57
5138;BME280;53959;53.626;11.410;2023-04-28T08:15:09;101050.66;;;17.05;31.41
5138;BME280;53959;53.626;11.410;2023-04-28T08:17:35;101041.72;;;17.61;31.11
5138;BME280;53959;53.626;11.410;2023-04-28T08:20:00;101044.66;;;18.45;30.43
5138;BME280;53959;53.626;11.410;2023-04-28T08:22:26;101036.88;;;18.56;30.23
5138;BME280;53959;53.626;11.410;2023-04-28T08:24:51;101043.28;;;18.54;30.12
5138;BME280;53959;53.626;11.410;2023-04-28T08:27:17;101043.47;;;17.24;31.66
5138;BME280;53959;53.626;11.410;2023-04-28T08:29:42;101038.31;;;17.39;31.53
5138;BME280;53959;53.626;11.410;2023-04-28T08:32:08;101031.59;;;17.66;30.84
5138;BME280;53959;53.626;11.410;2023-04-28T08:34:33;101040.97;;;17.77;30.93
5138;BME280;53959;53.626;11.410;2023-04-28T08:36:59;101044.00;;;17.88;30.91
5138;BME280;53959;53.626;11.410;2023-04-28T08:39:24;101035.41;;;18.51;29.92
5138;BME280;53959;53.626;11.410;2023-04-28T08:41:51;101022.00;;;19.00;29.98
5138;BME280;53959;53.626;11.410;2023-04-28T08:44:16;101032.44;;;19.53;29.26
5138;BME280;53959;53.626;11.410;2023-04-28T08:46:43;101028.19;;;18.34;30.64
5138;BME280;53959;53.626;11.410;2023-04-28T08:49:15;101023.72;;;18.85;29.99
5138;BME280;53959;53.626;11.410;2023-04-28T08:51:48;101020.44;;;18.96;29.82
5138;BME280;53959;53.626;11.410;2023-04-28T08:54:14;101025.63;;;17.79;31.42
5138;BME280;53959;53.626;11.410;2023-04-28T08:56:44;101019.28;;;17.99;31.36
5138;BME280;53959;53.626;11.410;2023-04-28T08:59:11;101016.28;;;17.87;30.82
5138;BME280;53959;53.626;11.410;2023-04-28T09:01:39;101013.16;;;17.41;31.26
5138;BME280;53959;53.626;11.410;2023-04-28T09:04:05;101012.50;;;17.72;30.69
5138;BME280;53959;53.626;11.410;2023-04-28T09:06:34;101011.91;;;17.30;31.47
5138;BME280;53959;53.626;11.410;2023-04-28T09:09:25;100998.75;;;18.65;30.05
5138;BME280;53959;53.626;11.410;2023-04-28T09:11:52;101002.59;;;17.92;30.46
5138;BME280;53959;53.626;11.410;2023-04-28T09:14:17;101003.97;;;17.64;31.06
5138;BME280;53959;53.626;11.410;2023-04-28T09:16:43;101000.44;;;17.81;30.51
5138;BME280;53959;53.626;11.410;2023-04-28T09:19:08;101002.97;;;17.48;30.94
5138;BME280;53959;53.626;11.410;2023-04-28T09:21:45;100994.66;;;17.35;31.19
5138;BME280;53959;53.626;11.410;2023-04-28T09:24:34;100996.09;;;17.60;30.50
5138;BME280;53959;53.626;11.410;2023-04-28T09:27:04;100992.34;;;16.90;32.00
5138;BME280;53959;53.626;11.410;2023-04-28T09:29:30;100986.31;;;16.45;31.92
5138;BME280;53959;53.626;11.410;2023-04-28T09:32:15;100977.91;;;15.49;33.13
5138;BME280;53959;53.626;11.410;2023-04-28T09:34:43;100981.81;;;15.85;32.85
5138;BME280;53959;53.626;11.410;2023-04-28T09:37:23;100982.50;;;15.90;33.29
5138;BME280;53959;53.626;11.410;2023-04-28T09:39:50;100977.66;;;15.98;33.14
5138;BME280;53959;53.626;11.410;2023-04-28T09:42:36;100974.88;;;16.21;32.62
5138;BME280;53959;53.626;11.410;2023-04-28T09:45:03;100968.13;;;16.52;32.12
5138;BME280;53959;53.626;11.410;2023-04-28T09:47:30;100964.59;;;15.90;33.22
5138;BME280;53959;53.626;11.410;2023-04-28T09:49:59;100961.88;;;16.33;32.25
5138;BME280;53959;53.626;11.410;2023-04-28T09:52:25;100952.34;;;16.85;31.38
5138;BME280;53959;53.626;11.410;2023-04-28T09:54:52;100953.34;;;17.02;31.81
5138;BME280;53959;53.626;11.410;2023-04-28T09:57:19;100964.66;;;17.08;31.71
5138;BME280;53959;53.626;11.410;2023-04-28T09:59:50;100955.88;;;16.86;32.21
5138;BME280;53959;53.626;11.410;2023-04-28T10:02:17;100953.03;;;16.70;32.25
5138;BME280;53959;53.626;11.410;2023-04-28T10:04:44;100947.72;;;16.68;32.65
5138;BME280;53959;53.626;11.410;2023-04-28T10:07:14;100948.78;;;16.45;32.50
5138;BME280;53959;53.626;11.410;2023-04-28T10:09:42;100943.63;;;16.41;32.61
5138;BME280;53959;53.626;11.410;2023-04-28T10:12:21;100939.63;;;15.90;33.66
5138;BME280;53959;53.626;11.410;2023-04-28T10:14:48;100929.44;;;15.57;34.44
5138;BME280;53959;53.626;11.410;2023-04-28T10:17:21;100929.03;;;15.44;35.40
5138;BME280;53959;53.626;11.410;2023-04-28T10:19:48;100935.16;;;15.48;35.44
5138;BME280;53959;53.626;11.410;2023-04-28T10:25:28;100924.94;;;14.92;35.89
5138;BME280;53959;53.626;11.410;2023-04-28T10:27:56;100919.84;;;14.86;35.82
5138;BME280;53959;53.626;11.410;2023-04-28T10:30:24;100912.41;;;14.94;35.55
5138;BME280;53959;53.626;11.410;2023-04-28T10:35:44;100909.78;;;15.14;35.89
5138;BME280;53959;53.626;11.410;2023-04-28T10:56:16;100887.13;;;14.79;35.97
5138;BME280;53959;53.626;11.410;2023-04-28T10:58:58;100893.72;;;14.92;35.94
5138;BME280;53959;53.626;11.410;2023-04-28T11:01:28;100888.75;;;15.05;37.17
5138;BME280;53959;53.626;11.410;2023-04-28T11:03:58;100884.47;;;14.79;35.91
5138;BME280;53959;53.626;11.410;2023-04-28T11:11:37;100884.81;;;14.92;36.35
5138;BME280;53959;53.626;11.410;2023-04-28T11:19:27;100872.94;;;14.77;37.12
5138;BME280;53959;53.626;11.410;2023-04-28T11:21:55;100875.19;;;14.88;37.61
5138;BME280;53959;53.626;11.410;2023-04-28T11:24:22;100868.00;;;14.66;37.72
5138;BME280;53959;53.626;11.410;2023-04-28T11:26:50;100862.13;;;14.80;37.06
5138;BME280;53959;53.626;11.410;2023-04-28T11:29:15;100865.31;;;14.44;36.50
5138;BME280;53959;53.626;11.410;2023-04-28T11:31:48;100861.47;;;14.51;36.69
5138;BME280;53959;53.626;11.410;2023-04-28T11:34:18;100859.78;;;14.49;36.73
5138;BME280;53959;53.626;11.410;2023-04-28T11:36:44;100862.75;;;14.87;36.66
5138;BME280;53959;53.626;11.410;2023-04-28T11:39:11;100852.13;;;14.63;36.73
5138;BME280;53959;53.626;11.410;2023-04-28T11:41:43;100846.59;;;14.90;36.86
5138;BME280;53959;53.626;11.410;2023-04-28T11:44:16;100846.22;;;14.99;37.05
5138;BME280;53959;53.626;11.410;2023-04-28T11:46:50;100844.91;;;15.09;37.42
5138;BME280;53959;53.626;11.410;2023-04-28T11:49:20;100833.00;;;15.16;37.42
5138;BME280;53959;53.626;11.410;2023-04-28T11:51:49;100837.50;;;15.16;36.80
5138;BME280;53959;53.626;11.410;2023-04-28T11:54:23;100844.59;;;15.37;36.26
5138;BME280;53959;53.626;11.410;2023-04-28T11:56:49;100846.47;;;15.55;35.82
5138;BME280;53959;53.626;11.410;2023-04-28T11:59:15;100845.22;;;15.44;35.60
5138;BME280;53959;53.626;11.410;2023-04-28T12:01:51;100838.38;;;15.16;35.82
5138;BME280;53959;53.626;11.410;2023-04-28T12:09:35;100835.53;;;15.82;36.02
5138;BME280;53959;53.626;11.410;2023-04-28T12:12:09;100838.16;;;15.84;35.40
5138;BME280;53959;53.626;11.410;2023-04-28T12:15:00;100832.47;;;16.10;35.81
5138;BME280;53959;53.626;11.410;2023-04-28T12:17:31;100827.19;;;16.27;35.11
5138;BME280;53959;53.626;11.410;2023-04-28T12:20:00;100830.38;;;15.77;35.57
5138;BME280;53959;53.626;11.410;2023-04-28T12:22:26;100825.22;;;15.73;36.26
5138;BME280;53959;53.626;11.410;2023-04-28T12:27:27;100828.22;;;15.86;36.20
5138;BME280;53959;53.626;11.410;2023-04-28T12:29:53;100811.97;;;15.70;37.02
5138;BME280;53959;53.626;11.410;2023-04-28T12:32:36;100823.22;;;15.78;36.35
5138;BME280;53959;53.626;11.410;2023-04-28T12:35:01;100815.44;;;15.92;35.97
5138;BME280;53959;53.626;11.410;2023-04-28T12:37:29;100809.72;;;16.38;35.55
5138;BME280;53959;53.626;11.410;2023-04-28T12:39:54;100806.47;;;16.31;34.92
5138;BME280;53959;53.626;11.410;2023-04-28T12:42:20;100803.50;;;16.37;35.05
5138;BME280;53959;53.626;11.410;2023-04-28T12:44:46;100795.72;;;16.69;34.54
5138;BME280;53959;53.626;11.410;2023-04-28T12:47:12;100790.88;;;16.39;35.06
5138;BME280;53959;53.626;11.410;2023-04-28T12:49:37;100796.81;;;16.46;34.86
5138;BME280;53959;53.626;11.410;2023-04-28T12:52:04;100793.38;;;16.25;35.29
5138;BME280;53959;53.626;11.410;2023-04-28T12:54:29;100798.94;;;16.20;35.35
5138;BME280;53959;53.626;11.410;2023-04-28T12:56:55;100790.88;;;16.01;36.14
5138;BME280;53959;53.626;11.410;2023-04-28T12:59:21;100788.09;;;15.65;36.20
5138;BME280;53959;53.626;11.410;2023-04-28T13:01:47;100776.31;;;15.69;36.05
5138;BME280;53959;53.626;11.410;2023-04-28T13:04:13;100778.69;;;15.75;36.14
5138;BME280;53959;53.626;11.410;2023-04-28T13:06:38;100776.22;;;15.71;36.52
5138;BME280;53959;53.626;11.410;2023-04-28T13:09:11;100773.78;;;15.85;36.25
5138;BME280;53959;53.626;11.410;2023-04-28T13:11:38;100758.00;;;15.38;36.96
5138;BME280;53959;53.626;11.410;2023-04-28T13:14:03;100767.19;;;15.73;37.18
5138;BME280;53959;53.626;11.410;2023-04-28T13:16:29;100765.19;;;15.97;37.01
5138;BME280;53959;53.626;11.410;2023-04-28T13:18:55;100763.09;;;16.23;37.14
5138;BME280;53959;53.626;11.410;2023-04-28T13:21:22;100757.63;;;16.24;36.67
5138;BME280;53959;53.626;11.410;2023-04-28T13:23:49;100756.13;;;16.00;36.91
5138;BME280;53959;53.626;11.410;2023-04-28T13:26:14;100744.69;;;16.15;36.96
5138;BME280;53959;53.626;11.410;2023-04-28T13:28:40;100749.53;;;16.26;36.94
5138;BME280;53959;53.626;11.410;2023-04-28T13:31:05;100744.78;;;16.33;36.78
5138;BME280;53959;53.626;11.410;2023-04-28T13:33:31;100740.94;;;16.00;37.03
5138;BME280;53959;53.626;11.410;2023-04-28T13:35:59;100739.84;;;16.05;36.97
5138;BME280;53959;53.626;11.410;2023-04-28T13:38:25;100727.31;;;16.05;37.23